Lewisport, KY (42351)

6:19 AM CDT on November 01, 2014 (GMT -0500)
RMR - Owensboro | Change Station
CLOSE
Current Station
Personal Weather Station
Location: Owensboro, KY
Elevation: 387 ft
Nearby Weather Stations
Active Advisory: Freeze Warning

Elev 387 ft 37.83 °N, 87.02 °W | Updated 10 minutes ago

Overcast
Overcast
35.8 °F
Feels Like 36 °F
N
0.0
Wind Variable Wind from ENE
Gusts 0.0 mph

Today
High -- | Low -- °F
--% Chance of Precip.
Yesterday
High -- | Low -- °F
Precip. -- in
7:13 AM 5:48 PM
Waxing Gibbous, 65% visible
Pressure 30.29 in
Visibility 10.0 miles
Clouds Overcast 4300 ft
Windchill 36 °F
Dew Point 28 °F
Humidity 72%
Rainfall 0.01 in
Snow Depth Not available.
UV 0 out of 12
Pollen .30 out of 12
Air Quality Not available.
Flu Activity Not available.
METAR KOWB 011056Z 36011G18KT 10SM OVC043 03/M02 A3028 RMK AO2 T00271022 SLP255

More Conditions Fewer Conditions

Pressure 30.29 in
Visibility 10.0 miles
Clouds Overcast 4300 ft
Windchill 36 °F
Dew Point 28 °F
Humidity 72%
Rainfall 0.01 in
Snow Depth Not available.
UV 0 out of 12
Pollen .30 out of 12
Air Quality Not available.
Flu Activity Not available.
METAR KOWB 011056Z 36011G18KT 10SM OVC043 03/M02 A3028 RMK AO2 T00271022 SLP255

More Conditions Fewer Conditions

10-Day Weather Forecast

Almanac

Astronomy

Nov. 01, 2014 Rise Set
Actual Time
Civil Twilight
Nautical Twilight
Astronomical Twilight
Moon
Length of Visible Light
Length of Day
Tomorrow will be .
, % of the Moon is Illuminated

Today's Extremes

State Highs State Lows

Community

WunderPhotos

Upload Photos

1,766,878 photos uploaded!

WunderBlogs® & News

Nearby

Air Quality

  Air Quality AQ Index Pollutant
Not available.

Snow Depth

Station Depth Elevation

Earthquake Activity

City Distance Mag. Time & Date
Minimum magnitude displayed is 2.5.

Coastal Water Temperatures

Place Temperature

Nearby Weather Stations